createdAt,value
2022-09-26T00:01:28.629Z,14.20
2022-09-26T00:04:04.036Z,14.25
2022-09-26T00:06:36.711Z,14.22
2022-09-26T00:09:09.507Z,14.27
2022-09-26T00:11:42.533Z,14.24
2022-09-26T00:14:22.712Z,14.19
2022-09-26T00:16:55.807Z,14.27
2022-09-26T00:19:28.944Z,14.25
2022-09-26T00:22:08.997Z,14.33
2022-09-26T00:24:41.641Z,14.36
2022-09-26T00:27:14.194Z,14.33
2022-09-26T00:29:46.950Z,14.32
2022-09-26T00:32:19.604Z,14.38
2022-09-26T00:34:52.445Z,14.37
2022-09-26T00:37:24.835Z,14.40
2022-09-26T00:39:57.469Z,14.40
2022-09-26T00:42:30.995Z,14.31
2022-09-26T00:45:03.833Z,14.36
2022-09-26T00:47:51.732Z,14.34
2022-09-26T00:50:33.314Z,14.32
2022-09-26T00:53:19.874Z,14.29
2022-09-26T00:56:03.383Z,14.25
2022-09-26T00:58:45.662Z,14.23
2022-09-26T01:01:21.456Z,14.20
2022-09-26T01:03:55.266Z,14.18
2022-09-26T01:06:28.291Z,14.15
2022-09-26T01:09:09.451Z,14.06
2022-09-26T01:11:45.801Z,14.03
2022-09-26T01:14:27.644Z,14.06
2022-09-26T01:17:01.070Z,14.03
2022-09-26T01:19:51.587Z,13.93
2022-09-26T01:22:39.247Z,13.96
2022-09-26T01:25:48.718Z,13.94
2022-09-26T01:28:55.504Z,13.89
2022-09-26T01:32:06.818Z,13.82
2022-09-26T01:35:05.161Z,13.82
2022-09-26T01:38:04.415Z,13.79
2022-09-26T01:40:50.956Z,13.77
2022-09-26T01:43:44.178Z,13.73
2022-09-26T01:46:53.758Z,13.68
2022-09-26T01:49:43.814Z,13.56
2022-09-26T01:52:31.239Z,13.58
2022-09-26T01:55:30.518Z,13.54
2022-09-26T01:58:34.391Z,13.52
2022-09-26T02:01:11.852Z,13.52
2022-09-26T02:03:52.584Z,13.41
2022-09-26T02:06:34.279Z,13.48
2022-09-26T02:09:23.566Z,13.52
2022-09-26T02:12:01.473Z,13.50
2022-09-26T02:14:39.502Z,13.50
2022-09-26T02:17:22.997Z,13.48
2022-09-26T02:20:12.393Z,13.45
2022-09-26T02:22:46.391Z,13.42
2022-09-26T02:25:23.838Z,13.37
2022-09-26T02:27:57.697Z,13.33
2022-09-26T02:30:32.722Z,13.28
2022-09-26T02:33:06.044Z,13.21
2022-09-26T02:35:58.390Z,13.15
2022-09-26T02:38:35.054Z,13.05
2022-09-26T02:41:31.946Z,13.02
2022-09-26T02:44:25.415Z,13.00
2022-09-26T02:46:59.586Z,12.93
2022-09-26T02:49:56.968Z,12.90
2022-09-26T02:53:00.988Z,12.82
2022-09-26T02:56:11.513Z,12.68
2022-09-26T02:59:22.149Z,12.75
2022-09-26T03:02:18.634Z,12.74
2022-09-26T03:05:13.816Z,12.79
2022-09-26T03:08:05.941Z,12.77
2022-09-26T03:10:39.680Z,12.62
2022-09-26T03:13:17.460Z,12.49
2022-09-26T03:15:56.766Z,12.39
2022-09-26T03:18:41.679Z,12.34
2022-09-26T03:21:17.333Z,12.25
2022-09-26T03:23:51.543Z,12.19
2022-09-26T03:26:28.327Z,12.09
2022-09-26T03:29:04.705Z,12.11
2022-09-26T03:31:39.017Z,12.03
2022-09-26T03:34:13.492Z,12.04
2022-09-26T03:36:46.319Z,12.02
2022-09-26T03:39:19.029Z,11.99
2022-09-26T03:41:58.725Z,11.97
2022-09-26T03:44:33.267Z,11.94
2022-09-26T03:47:19.294Z,11.81
2022-09-26T03:49:56.012Z,11.85
2022-09-26T03:52:29.228Z,11.88
2022-09-26T03:55:02.164Z,11.86
2022-09-26T03:57:35.069Z,11.84
2022-09-26T04:00:19.244Z,11.80
2022-09-26T04:02:51.943Z,11.78
2022-09-26T04:05:33.261Z,11.76
2022-09-26T04:08:06.607Z,11.70
2022-09-26T04:10:40.475Z,11.66
2022-09-26T04:13:33.645Z,11.65
2022-09-26T04:16:12.047Z,11.65
2022-09-26T04:18:47.385Z,11.67
2022-09-26T04:21:20.348Z,11.68
2022-09-26T04:23:55.137Z,11.49
2022-09-26T04:26:29.043Z,11.58
2022-09-26T04:29:02.747Z,11.62
2022-09-26T04:31:55.716Z,11.68
2022-09-26T04:34:33.002Z,11.77
2022-09-26T04:37:06.327Z,11.76
2022-09-26T04:39:39.498Z,11.81
2022-09-26T04:42:12.620Z,11.86
2022-09-26T04:44:48.683Z,11.87
2022-09-26T04:47:25.009Z,11.91
2022-09-26T04:50:25.930Z,12.01
2022-09-26T04:53:12.755Z,12.07
2022-09-26T04:55:55.266Z,12.23
2022-09-26T04:58:28.650Z,12.24
2022-09-26T05:01:11.861Z,12.32
2022-09-26T05:03:58.689Z,12.33
2022-09-26T05:06:32.535Z,12.45
2022-09-26T05:09:06.799Z,12.56
2022-09-26T05:11:57.448Z,12.62
2022-09-26T05:14:30.810Z,12.72
2022-09-26T05:17:04.168Z,12.81
2022-09-26T05:19:37.767Z,12.88
2022-09-26T05:22:25.500Z,12.96
2022-09-26T05:25:18.505Z,13.08
2022-09-26T05:27:54.002Z,13.19
2022-09-26T05:30:28.885Z,13.28
2022-09-26T05:33:02.369Z,13.36
2022-09-26T05:35:35.782Z,13.42
2022-09-26T05:38:09.086Z,13.46
2022-09-26T05:40:58.739Z,13.41
2022-09-26T05:43:35.507Z,13.35
2022-09-26T05:46:13.055Z,13.41
2022-09-26T05:48:53.727Z,13.32
2022-09-26T05:51:27.649Z,13.26
2022-09-26T05:54:01.000Z,13.26
2022-09-26T05:56:37.835Z,13.28
2022-09-26T05:59:31.693Z,13.32
2022-09-26T06:02:38.688Z,13.44
2022-09-26T06:05:29.797Z,13.49
2022-09-26T06:08:20.675Z,13.67
2022-09-26T06:11:18.614Z,13.84
2022-09-26T06:13:53.270Z,13.91
2022-09-26T06:16:26.615Z,13.94
2022-09-26T06:18:59.737Z,13.96
2022-09-26T06:21:33.245Z,14.09
2022-09-26T06:24:16.505Z,14.19
2022-09-26T06:26:50.155Z,14.28
2022-09-26T06:29:23.694Z,14.31
2022-09-26T06:31:57.266Z,14.33
2022-09-26T06:34:52.243Z,14.34
2022-09-26T06:37:43.669Z,14.31
2022-09-26T06:40:16.389Z,14.23
2022-09-26T06:42:49.698Z,14.26
2022-09-26T06:45:33.420Z,14.26
2022-09-26T06:48:30.075Z,14.25
2022-09-26T06:51:07.446Z,14.19
2022-09-26T06:53:41.484Z,14.17
2022-09-26T06:56:15.233Z,14.04
2022-09-26T06:58:50.136Z,14.11
2022-09-26T07:01:28.048Z,14.20
2022-09-26T07:04:18.751Z,14.24
2022-09-26T07:07:20.619Z,14.31
2022-09-26T07:09:53.865Z,14.33
2022-09-26T07:13:04.086Z,14.42
2022-09-26T07:15:38.779Z,14.54
2022-09-26T07:18:30.820Z,14.67
2022-09-26T07:21:12.190Z,14.73
2022-09-26T07:24:15.205Z,14.86
2022-09-26T07:26:48.817Z,14.96
2022-09-26T07:29:22.031Z,15.01
2022-09-26T07:31:55.643Z,15.09
2022-09-26T07:34:46.432Z,15.26
2022-09-26T07:37:22.952Z,15.37
2022-09-26T07:40:00.699Z,15.51
2022-09-26T07:42:39.363Z,15.63
2022-09-26T07:45:29.905Z,15.71
2022-09-26T07:48:27.844Z,15.78
2022-09-26T07:51:28.532Z,15.86
2022-09-26T07:54:01.840Z,15.88
2022-09-26T07:56:42.503Z,16.00
2022-09-26T07:59:37.342Z,16.04
2022-09-26T08:02:37.316Z,16.15
2022-09-26T08:05:12.450Z,16.18
2022-09-26T08:07:46.281Z,16.38
2022-09-26T08:10:45.979Z,16.49
2022-09-26T08:13:48.822Z,16.64
2022-09-26T08:16:47.268Z,16.73
2022-09-26T08:19:21.052Z,16.82
2022-09-26T08:21:54.198Z,16.86
2022-09-26T08:24:27.245Z,16.97
2022-09-26T08:27:23.436Z,17.13
2022-09-26T08:29:58.175Z,17.16
2022-09-26T08:32:32.900Z,17.21
2022-09-26T08:35:08.285Z,17.44
2022-09-26T08:37:50.509Z,17.52
2022-09-26T08:41:17.772Z,17.57
2022-09-26T08:44:53.670Z,17.66
2022-09-26T08:47:54.096Z,17.73
2022-09-26T08:50:52.666Z,17.82
2022-09-26T08:53:42.650Z,17.99
2022-09-26T08:56:24.850Z,18.07
2022-09-26T08:59:00.007Z,18.26
2022-09-26T09:01:43.378Z,18.32
2022-09-26T09:05:01.415Z,18.43
2022-09-26T09:07:34.609Z,18.62
2022-09-26T09:10:18.937Z,18.79
2022-09-26T09:13:48.127Z,19.00
2022-09-26T09:16:52.034Z,19.20
2022-09-26T09:20:05.617Z,19.30
2022-09-26T09:23:46.783Z,19.43
2022-09-26T09:29:58.393Z,19.60
2022-09-26T09:33:00.527Z,19.63
2022-09-26T09:36:01.570Z,19.80
2022-09-26T09:38:49.352Z,19.89
2022-09-26T09:41:43.987Z,19.91
2022-09-26T09:44:55.881Z,19.97
2022-09-26T09:47:30.632Z,20.09
2022-09-26T09:50:04.660Z,20.13
2022-09-26T09:53:06.805Z,20.17
2022-09-26T09:56:14.463Z,20.27
2022-09-26T09:58:46.928Z,20.37
2022-09-26T10:01:33.609Z,20.37
2022-09-26T10:04:37.419Z,20.45
2022-09-26T10:07:13.406Z,20.49
2022-09-26T10:09:52.752Z,20.53
2022-09-26T10:12:56.694Z,20.51
2022-09-26T10:16:03.926Z,20.62
2022-09-26T10:19:29.301Z,20.69
2022-09-26T10:22:02.866Z,20.74
2022-09-26T10:24:45.691Z,20.77
2022-09-26T10:27:39.452Z,20.73
2022-09-26T10:30:22.398Z,20.88
2022-09-26T10:33:03.803Z,20.91
2022-09-26T10:35:53.250Z,20.90
2022-09-26T10:38:30.862Z,20.93
2022-09-26T10:41:27.786Z,20.96
2022-09-26T10:44:02.227Z,21.00
2022-09-26T10:46:58.692Z,21.02
2022-09-26T10:50:12.768Z,21.11
2022-09-26T10:53:23.693Z,21.15
2022-09-26T10:56:01.805Z,21.23
2022-09-26T10:58:40.746Z,21.36
2022-09-26T11:01:26.924Z,21.44
2022-09-26T11:04:14.695Z,21.74
2022-09-26T11:07:36.673Z,21.88
2022-09-26T11:10:34.652Z,21.87
2022-09-26T11:14:08.136Z,21.87
2022-09-26T11:16:48.171Z,21.89
2022-09-26T11:19:31.881Z,21.93
2022-09-26T11:22:38.709Z,21.90
2022-09-26T11:25:45.293Z,21.90
2022-09-26T11:28:24.633Z,22.00
2022-09-26T11:31:37.583Z,22.14
2022-09-26T11:34:54.190Z,22.31
2022-09-26T11:38:06.020Z,22.53
2022-09-26T11:40:57.441Z,22.67
2022-09-26T11:43:49.852Z,22.77
2022-09-26T11:46:59.333Z,22.86
2022-09-26T11:50:27.130Z,23.07
2022-09-26T11:53:28.193Z,23.34
2022-09-26T11:56:18.794Z,23.49
2022-09-26T11:58:59.815Z,23.62
2022-09-26T12:01:39.807Z,23.72
2022-09-26T12:04:38.202Z,23.85
2022-09-26T12:07:29.619Z,24.01
2022-09-26T12:10:11.022Z,24.11
2022-09-26T12:12:46.243Z,24.18
2022-09-26T12:15:30.152Z,24.29
2022-09-26T12:18:22.310Z,24.31
2022-09-26T12:21:30.721Z,24.41
2022-09-26T12:24:06.665Z,24.52
2022-09-26T12:27:11.749Z,24.68
2022-09-26T12:30:13.173Z,24.76
2022-09-26T12:33:11.465Z,24.86
2022-09-26T12:36:12.002Z,24.91
2022-09-26T12:39:01.149Z,25.03
2022-09-26T12:42:04.191Z,25.13
2022-09-26T12:45:22.628Z,25.10
2022-09-26T12:48:44.775Z,25.05
2022-09-26T12:51:43.323Z,25.04
2022-09-26T12:54:30.108Z,24.90
2022-09-26T12:57:31.910Z,24.82
2022-09-26T13:00:12.816Z,24.77
2022-09-26T13:03:08.249Z,24.68
2022-09-26T13:06:19.145Z,24.60
2022-09-26T13:09:10.073Z,24.51
2022-09-26T13:12:12.017Z,24.46
2022-09-26T13:15:01.328Z,24.36
2022-09-26T13:17:39.027Z,24.29
2022-09-26T13:20:29.353Z,24.20
2022-09-26T13:23:12.823Z,24.19
2022-09-26T13:25:56.989Z,24.17
2022-09-26T13:29:00.427Z,24.14
2022-09-26T13:32:04.066Z,24.12
2022-09-26T13:34:48.217Z,24.10
2022-09-26T13:37:36.689Z,24.05
2022-09-26T13:40:46.128Z,24.00
2022-09-26T13:43:45.027Z,23.99
2022-09-26T13:46:41.197Z,23.98
2022-09-26T13:49:37.294Z,23.94
2022-09-26T13:52:52.939Z,23.88
2022-09-26T13:55:27.142Z,23.81
2022-09-26T13:58:08.347Z,23.76
2022-09-26T14:00:51.014Z,23.67
2022-09-26T14:03:25.305Z,23.66
2022-09-26T14:06:20.108Z,23.62
2022-09-26T14:09:25.880Z,23.57
2022-09-26T14:12:34.212Z,23.46
2022-09-26T14:15:25.364Z,23.43
2022-09-26T14:18:35.005Z,23.38
2022-09-26T14:21:34.375Z,23.27
2022-09-26T14:24:31.337Z,23.20
2022-09-26T14:27:13.097Z,23.17
2022-09-26T14:29:49.516Z,23.10
2022-09-26T14:32:45.910Z,22.99
2022-09-26T14:35:40.529Z,22.96
2022-09-26T14:38:18.547Z,22.88
2022-09-26T14:41:02.276Z,22.80
2022-09-26T14:43:37.480Z,22.70
2022-09-26T14:46:20.355Z,22.62
2022-09-26T14:49:02.577Z,22.54
2022-09-26T14:51:38.976Z,22.44
2022-09-26T14:54:43.691Z,22.34
2022-09-26T14:57:27.911Z,22.22
2022-09-26T15:00:02.281Z,22.12
2022-09-26T15:02:45.133Z,21.90
2022-09-26T15:05:26.912Z,21.91
2022-09-26T15:08:04.362Z,21.82
2022-09-26T15:10:47.565Z,21.65
2022-09-26T15:13:24.795Z,21.61
2022-09-26T15:16:25.132Z,21.50
2022-09-26T15:19:14.484Z,21.38
2022-09-26T15:21:56.825Z,21.27
2022-09-26T15:24:39.276Z,21.14
2022-09-26T15:27:30.456Z,20.93
2022-09-26T15:30:29.805Z,20.91
2022-09-26T15:33:16.277Z,20.73
2022-09-26T15:35:58.504Z,20.69
2022-09-26T15:38:33.502Z,20.56
2022-09-26T15:41:38.761Z,20.53
2022-09-26T15:44:24.183Z,20.37
2022-09-26T15:47:00.411Z,20.32
2022-09-26T15:49:34.150Z,20.24
2022-09-26T15:52:09.774Z,20.15
2022-09-26T15:54:46.157Z,20.10
2022-09-26T15:57:23.580Z,20.03
2022-09-26T16:00:00.687Z,19.96
2022-09-26T16:03:30.325Z,19.82
2022-09-26T16:06:03.535Z,19.69
2022-09-26T16:09:27.324Z,19.73
2022-09-26T16:12:12.979Z,19.66
2022-09-26T16:15:03.476Z,19.58
2022-09-26T16:17:51.608Z,19.55
2022-09-26T16:20:33.614Z,19.53
2022-09-26T16:23:07.242Z,19.51
2022-09-26T16:25:57.072Z,19.50
2022-09-26T16:28:47.689Z,19.48
2022-09-26T16:31:30.893Z,19.44
2022-09-26T16:34:07.848Z,19.38
2022-09-26T16:36:47.677Z,19.33
2022-09-26T16:39:31.591Z,19.24
2022-09-26T16:42:18.398Z,19.24
2022-09-26T16:44:59.527Z,19.22
2022-09-26T16:47:52.321Z,19.18
2022-09-26T16:50:31.990Z,19.11
2022-09-26T16:53:13.981Z,19.09
2022-09-26T16:55:47.875Z,19.04
2022-09-26T16:58:25.785Z,19.05
2022-09-26T17:01:21.254Z,19.04
2022-09-26T17:03:55.327Z,19.04
2022-09-26T17:06:31.612Z,18.99
2022-09-26T17:09:16.233Z,18.94
2022-09-26T17:11:51.621Z,18.98
2022-09-26T17:14:32.514Z,18.91
2022-09-26T17:17:10.409Z,18.98
2022-09-26T17:19:48.138Z,18.98
2022-09-26T17:22:27.386Z,18.97
2022-09-26T17:25:02.080Z,18.97
2022-09-26T17:27:38.838Z,18.97
2022-09-26T17:30:21.362Z,18.98
2022-09-26T17:32:56.274Z,18.98
2022-09-26T17:35:33.568Z,18.96
2022-09-26T17:38:08.518Z,18.94
2022-09-26T17:40:49.617Z,18.89
2022-09-26T17:43:23.883Z,18.87
2022-09-26T17:45:58.712Z,18.78
2022-09-26T17:48:33.167Z,18.80
2022-09-26T17:51:08.390Z,18.77
2022-09-26T17:53:55.942Z,18.73
2022-09-26T17:56:32.499Z,18.67
2022-09-26T17:59:22.288Z,18.58
2022-09-26T18:02:04.421Z,18.59
2022-09-26T18:04:38.498Z,18.57
2022-09-26T18:07:20.987Z,18.55
2022-09-26T18:09:55.461Z,18.53
2022-09-26T18:12:32.322Z,18.46
2022-09-26T18:15:07.910Z,18.43
2022-09-26T18:17:41.666Z,18.46
2022-09-26T18:20:15.174Z,18.45
2022-09-26T18:22:53.061Z,18.45
2022-09-26T18:25:28.508Z,18.43
2022-09-26T18:28:05.372Z,18.39
2022-09-26T18:30:45.691Z,18.27
2022-09-26T18:33:20.760Z,18.27
2022-09-26T18:35:54.187Z,18.24
2022-09-26T18:38:28.393Z,18.15
2022-09-26T18:41:02.235Z,18.12
2022-09-26T18:43:41.120Z,18.08
2022-09-26T18:46:18.666Z,18.04
2022-09-26T18:48:52.407Z,17.99
2022-09-26T18:51:25.604Z,18.02
2022-09-26T18:54:11.482Z,17.97
2022-09-26T18:57:07.055Z,18.00
2022-09-26T18:59:41.328Z,17.87
2022-09-26T19:02:24.580Z,17.96
2022-09-26T19:07:50.338Z,18.04
2022-09-26T19:10:25.197Z,18.07
2022-09-26T19:13:00.130Z,18.04
2022-09-26T19:15:33.979Z,18.03
2022-09-26T19:18:07.440Z,18.08
2022-09-26T19:20:44.060Z,18.01
2022-09-26T19:23:21.241Z,18.01
2022-09-26T19:25:54.696Z,18.08
2022-09-26T19:28:36.739Z,18.11
2022-09-26T19:31:11.220Z,18.09
2022-09-26T19:33:48.497Z,18.10
2022-09-26T19:36:23.497Z,18.11
2022-09-26T19:39:02.772Z,18.07
2022-09-26T19:41:37.618Z,18.12
2022-09-26T19:44:16.295Z,18.10
2022-09-26T19:46:54.073Z,18.09
2022-09-26T19:49:30.637Z,18.08
2022-09-26T19:52:04.002Z,18.05
2022-09-26T19:54:37.802Z,18.09
2022-09-26T19:57:25.240Z,18.11
2022-09-26T20:00:00.503Z,18.09
2022-09-26T20:02:35.240Z,18.04
2022-09-26T20:05:17.051Z,18.15
2022-09-26T20:07:50.658Z,18.18
2022-09-26T20:10:25.930Z,18.19
2022-09-26T20:12:59.150Z,18.19
2022-09-26T20:15:43.231Z,18.21
2022-09-26T20:18:26.706Z,18.22
2022-09-26T20:21:00.594Z,18.24
2022-09-26T20:23:34.485Z,18.25
2022-09-26T20:26:10.237Z,18.24
2022-09-26T20:28:43.235Z,18.25
2022-09-26T20:31:27.891Z,18.26
2022-09-26T20:34:02.113Z,18.25
2022-09-26T20:36:36.540Z,18.22
2022-09-26T20:39:15.595Z,18.23
2022-09-26T20:41:48.942Z,18.25
2022-09-26T20:44:29.003Z,18.22
2022-09-26T20:47:07.807Z,18.22
2022-09-26T20:49:52.665Z,18.19
2022-09-26T20:52:29.451Z,18.19
2022-09-26T20:55:05.418Z,18.17
2022-09-26T20:57:42.310Z,18.11
2022-09-26T21:00:23.545Z,18.15
2022-09-26T21:02:57.744Z,18.14
2022-09-26T21:05:31.149Z,18.14
2022-09-26T21:08:09.705Z,18.18
2022-09-26T21:10:42.620Z,18.20
2022-09-26T21:13:19.451Z,18.20
2022-09-26T21:15:53.482Z,18.17
2022-09-26T21:18:30.559Z,18.11
2022-09-26T21:21:11.229Z,18.16
2022-09-26T21:24:25.534Z,18.16
2022-09-26T21:26:58.950Z,18.18
2022-09-26T21:29:32.557Z,18.17
2022-09-26T21:32:08.840Z,18.14
2022-09-26T21:34:42.900Z,18.12
2022-09-26T21:37:16.303Z,18.12
2022-09-26T21:39:52.081Z,18.08
2022-09-26T21:42:28.911Z,18.08
2022-09-26T21:45:07.830Z,18.10
2022-09-26T21:47:41.401Z,18.14
2022-09-26T21:50:20.932Z,18.15
2022-09-26T21:53:25.672Z,18.17
2022-09-26T21:56:07.583Z,18.18
2022-09-26T21:58:42.914Z,18.14
2022-09-26T22:01:21.585Z,18.20
2022-09-26T22:03:54.971Z,18.19
2022-09-26T22:06:28.259Z,18.19
2022-09-26T22:09:01.560Z,18.17
2022-09-26T22:11:40.437Z,18.22
2022-09-26T22:14:22.304Z,18.23
2022-09-26T22:16:57.708Z,18.22
2022-09-26T22:19:34.076Z,18.17
2022-09-26T22:22:07.806Z,18.15
2022-09-26T22:24:41.169Z,18.10
2022-09-26T22:27:14.378Z,18.03
2022-09-26T22:29:48.926Z,17.93
2022-09-26T22:32:22.134Z,17.87
2022-09-26T22:34:55.201Z,17.84
2022-09-26T22:37:29.138Z,17.82
2022-09-26T22:40:02.040Z,17.77
2022-09-26T22:42:35.233Z,17.74
2022-09-26T22:45:08.852Z,17.67
2022-09-26T22:47:42.364Z,17.73
2022-09-26T22:50:15.590Z,17.72
2022-09-26T22:52:49.076Z,17.69
2022-09-26T22:55:22.918Z,17.57
2022-09-26T22:57:55.847Z,17.41
2022-09-26T23:00:28.799Z,17.42
2022-09-26T23:03:01.806Z,17.42
2022-09-26T23:05:34.834Z,17.34
2022-09-26T23:08:07.445Z,17.39
2022-09-26T23:10:40.280Z,17.40
2022-09-26T23:13:13.056Z,17.44
2022-09-26T23:15:46.763Z,17.51
2022-09-26T23:18:19.496Z,17.56
2022-09-26T23:20:52.537Z,17.60
2022-09-26T23:23:25.548Z,17.60
2022-09-26T23:25:58.417Z,17.68
2022-09-26T23:28:35.284Z,17.67
2022-09-26T23:31:12.489Z,17.68
2022-09-26T23:33:45.591Z,17.70
2022-09-26T23:36:18.622Z,17.63
2022-09-26T23:38:52.045Z,17.66
2022-09-26T23:41:24.858Z,17.60
2022-09-26T23:43:58.157Z,17.67
2022-09-26T23:46:30.886Z,17.67
2022-09-26T23:49:05.725Z,17.68
2022-09-26T23:51:40.671Z,17.69
2022-09-26T23:54:16.780Z,17.66
2022-09-26T23:57:01.846Z,17.66
2022-09-26T23:59:34.848Z,17.68
